Time;durP1;ratioP1;P1;durP2;ratioP2;P2;SDS_P1;SDS_P2;PMS_P1;PMS_P2;Temp;Humidity;BMP_temperature;BMP_pressure;BME280_temperature;BME280_humidity;BME280_pressure;Samples;Min_cycle;Max_cycle;Signal;HPM_P1;HPM_P2
2023/05/29 00:02:13;;;;;;;1999.90;999.90;;;18.70;99.90;;;;;;5073435;28;20027;-73
2023/05/29 00:04:40;;;;;;;1999.90;999.90;;;18.70;99.90;;;;;;5074022;28;20028;-81
2023/05/29 00:07:05;;;;;;;1999.90;999.90;;;18.60;99.90;;;;;;5055839;28;20016;-81
2023/05/29 00:09:31;;;;;;;1999.90;999.90;;;18.70;99.90;;;;;;5074015;28;20509;-73
2023/05/29 00:11:57;;;;;;;1999.90;999.90;;;18.70;99.90;;;;;;5073925;28;20373;-81
2023/05/29 00:14:23;;;;;;;1999.90;999.90;;;18.70;99.90;;;;;;5072986;28;20479;-73
2023/05/29 00:16:50;;;;;;;1999.90;999.90;;;18.80;99.90;;;;;;5066778;28;20020;-72
2023/05/29 00:19:22;;;;;;;1999.90;999.90;;;18.80;99.90;;;;;;5053414;28;20399;-81
2023/05/29 00:21:48;;;;;;;1999.90;999.90;;;18.90;99.90;;;;;;5053961;28;20028;-73
2023/05/29 00:24:17;;;;;;;1999.90;999.90;;;18.90;99.90;;;;;;5053830;28;20025;-73
2023/05/29 00:26:43;;;;;;;1999.90;999.90;;;19.00;99.90;;;;;;5053549;28;20032;-80
2023/05/29 00:29:09;;;;;;;1999.90;999.90;;;18.90;99.90;;;;;;5052160;28;20043;-81
2023/05/29 00:31:36;;;;;;;1999.90;999.90;;;18.90;99.90;;;;;;5053152;28;20025;-81
2023/05/29 00:34:02;;;;;;;1999.90;999.90;;;18.90;99.90;;;;;;5053547;28;20052;-72
2023/05/29 00:36:29;;;;;;;1999.90;999.90;;;18.90;99.90;;;;;;5053526;28;20484;-72
2023/05/29 00:38:55;;;;;;;1999.90;999.90;;;18.90;99.90;;;;;;5053454;28;20025;-81
2023/05/29 00:41:20;;;;;;;1999.90;999.90;;;19.00;99.90;;;;;;5053866;28;20021;-81
2023/05/29 00:43:46;;;;;;;1999.90;999.90;;;19.10;99.90;;;;;;5053549;28;20457;-72
2023/05/29 00:46:14;;;;;;;1999.90;999.90;;;19.30;99.90;;;;;;5053514;28;20025;-81
2023/05/29 00:48:43;;;;;;;1999.90;999.90;;;19.30;99.90;;;;;;5051499;28;20472;-73
2023/05/29 00:51:10;;;;;;;1999.90;999.90;;;19.40;99.90;;;;;;5053380;28;20547;-81
2023/05/29 00:53:37;;;;;;;1999.90;999.90;;;19.50;99.90;;;;;;5053809;28;20036;-81
2023/05/29 00:56:04;;;;;;;1999.90;999.90;;;19.50;99.90;;;;;;5052947;28;20406;-73
2023/05/29 00:58:30;;;;;;;1999.90;999.90;;;19.60;99.90;;;;;;5053185;28;20138;-82
2023/05/29 01:00:55;;;;;;;1999.90;999.90;;;19.60;99.90;;;;;;5052997;28;20126;-73
2023/05/29 01:03:22;;;;;;;1999.90;999.90;;;19.70;99.90;;;;;;5060398;28;20031;-80
2023/05/29 01:05:48;;;;;;;1999.90;999.90;;;19.80;99.90;;;;;;5073114;28;20495;-81
2023/05/29 01:08:14;;;;;;;1999.90;999.90;;;19.80;99.90;;;;;;5069935;28;20048;-72
2023/05/29 01:10:42;;;;;;;1999.90;999.90;;;19.80;99.90;;;;;;5052751;28;20021;-81
2023/05/29 01:13:23;;;;;;;1999.90;999.90;;;19.80;99.90;;;;;;5053330;28;20048;-81
2023/05/29 01:16:15;;;;;;;1999.90;999.90;;;19.80;99.90;;;;;;5052827;28;20443;-73
2023/05/29 01:18:52;;;;;;;1999.90;999.90;;;19.70;99.90;;;;;;5053039;28;20025;-80
2023/05/29 01:21:30;;;;;;;1999.90;999.90;;;19.70;99.90;;;;;;5034917;28;20502;-73
2023/05/29 01:24:27;;;;;;;1999.90;999.90;;;19.50;99.90;;;;;;5052713;28;20457;-81
2023/05/29 01:27:14;;;;;;;1999.90;999.90;;;19.50;99.90;;;;;;5051747;28;20021;-73
2023/05/29 01:29:43;;;;;;;1999.90;999.90;;;19.40;99.90;;;;;;5052375;28;20040;-81
2023/05/29 01:32:10;;;;;;;1999.90;999.90;;;19.30;99.90;;;;;;5052863;28;20032;-81
2023/05/29 01:34:35;;;;;;;1999.90;999.90;;;19.20;99.90;;;;;;5052768;28;20083;-73
2023/05/29 01:37:01;;;;;;;1999.90;999.90;;;19.10;99.90;;;;;;5051183;28;20496;-81
2023/05/29 01:39:27;;;;;;;1999.90;999.90;;;19.00;99.90;;;;;;5052383;28;20033;-73
2023/05/29 01:41:54;;;;;;;1999.90;999.90;;;18.90;99.90;;;;;;5052806;28;20032;-73
2023/05/29 01:44:20;;;;;;;1999.90;999.90;;;18.90;99.90;;;;;;5052793;28;20024;-73
2023/05/29 01:46:46;;;;;;;1999.90;999.90;;;18.80;99.90;;;;;;5052491;28;20017;-72
2023/05/29 01:49:13;;;;;;;1999.90;999.90;;;18.70;99.90;;;;;;5051664;28;20033;-80
2023/05/29 01:51:40;;;;;;;1999.90;999.90;;;18.70;99.90;;;;;;5052431;28;20535;-73
2023/05/29 01:54:06;;;;;;;1999.90;999.90;;;18.60;99.90;;;;;;5052955;28;20392;-72
2023/05/29 01:56:32;;;;;;;1999.90;999.90;;;18.60;99.90;;;;;;5052641;28;20033;-81
2023/05/29 01:59:00;;;;;;;1999.90;999.90;;;18.50;99.90;;;;;;5052357;28;20035;-81
2023/05/29 02:01:26;;;;;;;1999.90;999.90;;;18.40;99.90;;;;;;5052254;28;20027;-80
2023/05/29 02:03:52;;;;;;;1999.90;999.90;;;18.30;99.90;;;;;;5063856;28;20024;-81
2023/05/29 02:06:18;;;;;;;1999.90;999.90;;;18.20;99.90;;;;;;5072389;28;20018;-73
2023/05/29 02:08:43;;;;;;;1999.90;999.90;;;18.10;99.90;;;;;;5072202;28;20045;-81
2023/05/29 02:11:09;;;;;;;1999.90;999.90;;;18.10;99.90;;;;;;5072365;28;20491;-72
2023/05/29 02:13:35;;;;;;;1999.90;999.90;;;18.00;99.90;;;;;;5072630;28;20024;-73
2023/05/29 02:16:01;;;;;;;1999.90;999.90;;;17.90;99.90;;;;;;5071116;28;20149;-81
2023/05/29 02:18:26;;;;;;;1999.90;999.90;;;17.90;99.90;;;;;;5072319;28;20032;-72
2023/05/29 02:20:52;;;;;;;1999.90;999.90;;;17.80;99.90;;;;;;5072004;28;20085;-72
2023/05/29 02:23:19;;;;;;;1999.90;999.90;;;17.70;99.90;;;;;;5072380;28;20397;-81
2023/05/29 02:25:45;;;;;;;1999.90;999.90;;;17.70;99.90;;;;;;5072176;28;20099;-81
2023/05/29 02:28:10;;;;;;;1999.90;999.90;;;17.60;99.90;;;;;;5072373;28;20480;-81
2023/05/29 02:30:36;;;;;;;1999.90;999.90;;;17.50;99.90;;;;;;5072290;28;20052;-73
2023/05/29 02:33:02;;;;;;;1999.90;999.90;;;17.40;99.90;;;;;;5072350;28;20047;-73
2023/05/29 02:35:27;;;;;;;1999.90;999.90;;;17.40;99.90;;;;;;5072097;28;20024;-72
2023/05/29 02:37:53;;;;;;;1999.90;999.90;;;17.40;99.90;;;;;;5072323;28;20032;-81
2023/05/29 02:40:19;;;;;;;1999.90;999.90;;;17.30;99.90;;;;;;5071513;28;20491;-81
2023/05/29 02:42:45;;;;;;;1999.90;999.90;;;17.30;99.90;;;;;;5075184;28;20021;-73
2023/05/29 02:45:11;;;;;;;1999.90;999.90;;;17.20;99.90;;;;;;5075693;28;20036;-72
2023/05/29 02:47:37;;;;;;;1999.90;999.90;;;17.10;99.90;;;;;;5075800;28;20025;-81
2023/05/29 02:50:04;;;;;;;1999.90;999.90;;;17.10;99.90;;;;;;5074761;28;20108;-81
2023/05/29 02:52:33;;;;;;;1999.90;999.90;;;17.00;99.90;;;;;;5075659;28;20103;-81
2023/05/29 02:54:58;;;;;;;1999.90;999.90;;;17.00;99.90;;;;;;5057383;28;20462;-72
2023/05/29 02:57:24;;;;;;;1999.90;999.90;;;16.90;99.90;;;;;;5075510;28;20024;-72
2023/05/29 02:59:51;;;;;;;1999.90;999.90;;;16.90;99.90;;;;;;5075134;28;20027;-72
2023/05/29 03:02:17;;;;;;;1999.90;999.90;;;16.90;99.90;;;;;;5075441;28;20031;-73
2023/05/29 03:04:44;;;;;;;1999.90;999.90;;;16.80;99.90;;;;;;5074963;28;20097;-73
2023/05/29 03:07:09;;;;;;;1999.90;999.90;;;16.80;99.90;;;;;;5075139;28;20020;-81
2023/05/29 03:09:35;;;;;;;1999.90;999.90;;;16.80;99.90;;;;;;5075011;28;20079;-72
2023/05/29 03:12:01;;;;;;;1999.90;999.90;;;16.80;99.90;;;;;;5075070;28;20483;-73
2023/05/29 03:14:27;;;;;;;1999.90;999.90;;;16.70;99.90;;;;;;5075174;28;20040;-73
2023/05/29 03:16:53;;;;;;;1999.90;999.90;;;16.70;99.90;;;;;;5067583;28;20028;-80
2023/05/29 03:19:19;;;;;;;1999.90;999.90;;;16.70;99.90;;;;;;5074960;28;20399;-72
2023/05/29 03:21:45;;;;;;;1999.90;999.90;;;16.70;99.90;;;;;;5074889;28;20036;-81
2023/05/29 03:24:13;;;;;;;1999.90;999.90;;;16.60;99.90;;;;;;5074991;28;20020;-72
2023/05/29 03:26:39;;;;;;;1999.90;999.90;;;16.60;99.90;;;;;;5074987;28;20016;-81
2023/05/29 03:29:05;;;;;;;1999.90;999.90;;;16.60;99.90;;;;;;5074995;28;20078;-81
2023/05/29 03:31:31;;;;;;;1999.90;999.90;;;16.70;99.90;;;;;;5074786;28;20036;-81
2023/05/29 03:33:56;;;;;;;1999.90;999.90;;;16.60;99.90;;;;;;5056546;28;20017;-72
2023/05/29 03:36:22;;;;;;;1999.90;999.90;;;16.60;99.90;;;;;;5074503;28;20040;-72
2023/05/29 03:38:48;;;;;;;1999.90;999.90;;;16.60;99.90;;;;;;5074570;28;20510;-72
2023/05/29 03:41:13;;;;;;;1999.90;999.90;;;16.60;99.90;;;;;;5074727;28;20024;-81
2023/05/29 03:43:39;;;;;;;1999.90;999.90;;;16.70;99.90;;;;;;5074558;28;20017;-81
2023/05/29 03:46:04;;;;;;;1999.90;999.90;;;16.70;99.90;;;;;;5074332;28;20028;-81
2023/05/29 03:48:30;;;;;;;1999.90;999.90;;;16.70;99.90;;;;;;5074461;28;20508;-72
2023/05/29 03:50:56;;;;;;;1999.90;999.90;;;16.70;99.90;;;;;;5073744;28;20102;-72
2023/05/29 03:53:21;;;;;;;1999.90;999.90;;;16.70;99.90;;;;;;5073874;28;20206;-81
2023/05/29 03:55:47;;;;;;;1999.90;999.90;;;16.70;99.90;;;;;;5074061;28;20059;-72
2023/05/29 03:58:14;;;;;;;1999.90;999.90;;;16.60;99.90;;;;;;5074323;28;20369;-73
2023/05/29 04:00:40;;;;;;;1999.90;999.90;;;16.60;99.90;;;;;;5074059;28;20024;-81
2023/05/29 04:03:06;;;;;;;1999.90;999.90;;;16.60;99.90;;;;;;5070207;28;20017;-73
2023/05/29 04:05:31;;;;;;;1999.90;999.90;;;16.60;99.90;;;;;;5074215;28;20377;-81
2023/05/29 04:07:57;;;;;;;1999.90;999.90;;;16.60;99.90;;;;;;5073774;28;20040;-72
2023/05/29 04:10:24;;;;;;;1999.90;999.90;;;16.60;99.90;;;;;;5073852;28;20078;-80
2023/05/29 04:12:49;;;;;;;1999.90;999.90;;;16.60;99.90;;;;;;5068405;28;20028;-72
2023/05/29 04:15:15;;;;;;;1999.90;999.90;;;16.60;99.90;;;;;;5054039;28;20033;-72
2023/05/29 04:17:40;;;;;;;1999.90;999.90;;;16.60;99.90;;;;;;5075017;28;20028;-73
2023/05/29 04:20:08;;;;;;;1999.90;999.90;;;16.60;99.90;;;;;;5093028;28;20024;-72
2023/05/29 04:22:37;;;;;;;1999.90;999.90;;;16.60;99.90;;;;;;5093990;28;20012;-81
2023/05/29 04:25:06;;;;;;;1999.90;999.90;;;16.70;99.90;;;;;;5094321;28;20504;-81
2023/05/29 04:27:32;;;;;;;1999.90;999.90;;;16.60;99.90;;;;;;5093866;28;20024;-72
2023/05/29 04:29:58;;;;;;;1999.90;999.90;;;16.70;99.90;;;;;;5093898;28;20119;-73
2023/05/29 04:32:24;;;;;;;1999.90;999.90;;;16.70;99.90;;;;;;5075605;28;20028;-81
2023/05/29 04:34:51;;;;;;;1999.90;999.90;;;16.70;99.90;;;;;;5094066;28;20502;-72
2023/05/29 04:37:17;;;;;;;1999.90;999.90;;;16.70;99.90;;;;;;5093767;28;20552;-81
2023/05/29 04:39:43;;;;;;;1999.90;999.90;;;16.80;99.90;;;;;;5093595;28;20443;-72
2023/05/29 04:42:09;;;;;;;1999.90;999.90;;;16.70;99.90;;;;;;5093811;28;20387;-72
2023/05/29 04:44:35;;;;;;;1999.90;999.90;;;16.70;99.90;;;;;;5093689;28;20020;-81
2023/05/29 04:47:03;;;;;;;1999.90;999.90;;;16.70;99.90;;;;;;5093695;28;20027;-81
2023/05/29 04:49:29;;;;;;;1999.90;999.90;;;16.70;99.90;;;;;;5093826;28;20057;-81
2023/05/29 04:51:54;;;;;;;1999.90;999.90;;;16.70;99.90;;;;;;5092102;28;20051;-81
2023/05/29 04:54:22;;;;;;;1999.90;999.90;;;16.60;99.90;;;;;;5085879;28;20534;-72
2023/05/29 04:56:47;;;;;;;1999.90;999.90;;;16.60;99.90;;;;;;5093783;28;20028;-72
2023/05/29 04:59:13;;;;;;;1999.90;999.90;;;16.60;99.90;;;;;;5093437;28;20027;-81
2023/05/29 05:01:39;;;;;;;1999.90;999.90;;;16.60;99.90;;;;;;5091396;28;20500;-72
2023/05/29 05:04:05;;;;;;;1999.90;999.90;;;16.70;99.90;;;;;;5072644;28;20028;-81
2023/05/29 05:06:30;;;;;;;1999.90;999.90;;;16.70;99.90;;;;;;5072462;28;20115;-72
2023/05/29 05:08:56;;;;;;;1999.90;999.90;;;16.70;99.90;;;;;;5072680;28;20119;-72
2023/05/29 05:11:23;;;;;;;1999.90;999.90;;;16.80;99.90;;;;;;5073179;28;20432;-81
2023/05/29 05:13:49;;;;;;;1999.90;999.90;;;16.80;99.90;;;;;;5072732;28;20036;-81
2023/05/29 05:16:16;;;;;;;1999.90;999.90;;;16.80;99.90;;;;;;5070627;28;20104;-81
2023/05/29 05:18:43;;;;;;;1999.90;999.90;;;16.80;99.90;;;;;;5068216;28;20039;-72
2023/05/29 05:21:08;;;;;;;1999.90;999.90;;;16.80;99.90;;;;;;5072727;28;20021;-72
2023/05/29 05:23:34;;;;;;;1999.90;999.90;;;16.90;99.90;;;;;;5072706;28;20063;-81
2023/05/29 05:25:59;;;;;;;1999.90;999.90;;;16.90;99.90;;;;;;5072753;28;20032;-72
2023/05/29 05:28:25;;;;;;;1999.90;999.90;;;17.00;99.90;;;;;;5072664;28;20025;-80
2023/05/29 05:30:51;;;;;;;1999.90;999.90;;;17.10;99.90;;;;;;5073065;28;20506;-81
2023/05/29 05:33:17;;;;;;;1999.90;999.90;;;17.10;99.90;;;;;;5072706;28;20052;-72
2023/05/29 05:35:43;;;;;;;1999.90;999.90;;;17.20;99.90;;;;;;5072639;28;20035;-73
2023/05/29 05:38:09;;;;;;;1999.90;999.90;;;17.20;99.90;;;;;;5072670;28;20454;-81
2023/05/29 05:40:34;;;;;;;1999.90;999.90;;;17.30;99.90;;;;;;5072478;28;20399;-81
2023/05/29 05:43:00;;;;;;;1999.90;999.90;;;17.30;99.90;;;;;;5072764;28;20032;-81
2023/05/29 05:45:26;;;;;;;1999.90;999.90;;;17.30;99.90;;;;;;5072093;28;20433;-77
2023/05/29 05:47:51;;;;;;;1999.90;999.90;;;17.40;99.90;;;;;;5072432;28;20035;-72
2023/05/29 05:50:17;;;;;;;1999.90;999.90;;;17.50;99.90;;;;;;5072713;28;20067;-72
2023/05/29 05:52:42;;;;;;;1999.90;999.90;;;17.60;99.90;;;;;;5071589;28;20036;-81
2023/05/29 05:55:08;;;;;;;1999.90;999.90;;;17.60;99.90;;;;;;5072505;28;20107;-73
2023/05/29 05:57:35;;;;;;;1999.90;999.90;;;17.70;99.90;;;;;;5072504;28;20029;-82
2023/05/29 06:00:07;;;;;;;1999.90;999.90;;;17.70;99.90;;;;;;5072169;28;20112;-72
2023/05/29 06:02:33;;;;;;;1999.90;999.90;;;17.80;99.90;;;;;;5071061;28;20016;-81
2023/05/29 06:04:59;;;;;;;1999.90;999.90;;;17.90;99.90;;;;;;5070108;28;20027;-81
2023/05/29 06:07:24;;;;;;;1999.90;999.90;;;17.90;99.90;;;;;;5072159;28;20486;-81
2023/05/29 06:09:50;;;;;;;1999.90;999.90;;;18.00;99.90;;;;;;5072109;28;20092;-81
2023/05/29 06:12:16;;;;;;;1999.90;999.90;;;18.00;99.90;;;;;;5072309;28;20479;-73
2023/05/29 06:14:41;;;;;;;1999.90;999.90;;;18.10;99.90;;;;;;5072046;28;20025;-72
2023/05/29 06:17:07;;;;;;;1999.90;999.90;;;18.20;99.90;;;;;;5074419;28;20024;-81
2023/05/29 06:19:33;;;;;;;1999.90;999.90;;;18.20;99.90;;;;;;5058136;28;20031;-81
2023/05/29 06:21:58;;;;;;;1999.90;999.90;;;18.30;99.90;;;;;;5075955;28;20040;-72
2023/05/29 06:24:24;;;;;;;1999.90;999.90;;;18.30;99.90;;;;;;5075912;28;20036;-81
2023/05/29 06:26:50;;;;;;;1999.90;999.90;;;18.40;99.90;;;;;;5076126;28;20055;-73
2023/05/29 06:29:15;;;;;;;1999.90;999.90;;;18.50;99.90;;;;;;5075817;28;20503;-80
2023/05/29 06:31:41;;;;;;;1999.90;999.90;;;18.50;99.90;;;;;;5076243;28;20020;-80
2023/05/29 06:34:07;;;;;;;1999.90;999.90;;;18.60;99.90;;;;;;5075838;28;20107;-73
2023/05/29 06:36:32;;;;;;;1999.90;999.90;;;18.70;99.90;;;;;;5075670;28;20039;-81
2023/05/29 06:38:58;;;;;;;1999.90;999.90;;;18.80;99.90;;;;;;5075717;28;20031;-73
2023/05/29 06:41:24;;;;;;;1999.90;999.90;;;18.90;99.90;;;;;;5075877;28;20155;-72
2023/05/29 06:43:51;;;;;;;1999.90;999.90;;;18.90;99.90;;;;;;5075730;28;20048;-81
2023/05/29 06:46:17;;;;;;;1999.90;999.90;;;19.00;99.90;;;;;;5075721;28;20078;-81
2023/05/29 06:48:43;;;;;;;1999.90;999.90;;;19.10;99.90;;;;;;5075447;28;20494;-82
2023/05/29 06:51:11;;;;;;;1999.90;999.90;;;19.20;99.90;;;;;;5075452;28;20044;-73
2023/05/29 06:53:41;;;;;;;1999.90;999.90;;;19.30;99.90;;;;;;5075065;28;20021;-73
2023/05/29 06:56:07;;;;;;;1999.90;999.90;;;19.40;99.90;;;;;;5075747;28;20368;-81
2023/05/29 06:58:33;;;;;;;1999.90;999.90;;;19.50;99.90;;;;;;5075414;28;20056;-81
2023/05/29 07:00:59;;;;;;;1999.90;999.90;;;19.60;99.90;;;;;;5075376;28;20028;-80
2023/05/29 07:03:26;;;;;;;1999.90;999.90;;;19.60;99.90;;;;;;5074958;28;20556;-72
2023/05/29 07:05:52;;;;;;;1999.90;999.90;;;19.80;99.90;;;;;;5075152;28;20055;-72
2023/05/29 07:08:18;;;;;;;1999.90;999.90;;;19.90;99.90;;;;;;5075083;28;20051;-81
2023/05/29 07:10:44;;;;;;;1999.90;999.90;;;20.00;99.90;;;;;;5075151;28;20153;-73
2023/05/29 07:13:09;;;;;;;1999.90;999.90;;;20.10;99.90;;;;;;5075154;28;20511;-81
2023/05/29 07:15:37;;;;;;;1999.90;999.90;;;20.30;99.90;;;;;;5075241;28;20043;-73
2023/05/29 07:18:02;;;;;;;1999.90;999.90;;;20.40;99.90;;;;;;5067559;28;20032;-73
2023/05/29 07:20:28;;;;;;;1999.90;999.90;;;20.40;99.90;;;;;;5074927;28;20476;-77
2023/05/29 07:22:53;;;;;;;1999.90;999.90;;;20.50;99.90;;;;;;5074922;28;20436;-81
2023/05/29 07:25:19;;;;;;;1999.90;999.90;;;20.60;99.90;;;;;;5074102;28;20033;-73
2023/05/29 07:27:45;;;;;;;1999.90;999.90;;;20.80;99.90;;;;;;5073795;28;20098;-81
2023/05/29 07:30:11;;;;;;;1999.90;999.90;;;20.90;99.90;;;;;;5074643;28;20046;-73
2023/05/29 07:32:37;;;;;;;1999.90;999.90;;;21.30;99.90;;;;;;5075068;28;20138;-73
2023/05/29 07:35:02;;;;;;;1999.90;999.90;;;22.70;99.90;;;;;;5074830;28;20028;-81
2023/05/29 07:37:31;;;;;;;1999.90;999.90;;;24.80;99.90;;;;;;5075081;28;20028;-82
2023/05/29 07:39:57;;;;;;;1999.90;999.90;;;25.90;99.90;;;;;;5074487;28;20028;-81
2023/05/29 07:42:22;;;;;;;1999.90;999.90;;;26.50;99.90;;;;;;5074846;28;20373;-82
2023/05/29 07:44:48;;;;;;;1999.90;999.90;;;27.00;99.90;;;;;;5074643;28;20032;-74
2023/05/29 07:47:14;;;;;;;1999.90;999.90;;;27.20;99.90;;;;;;5074507;28;20029;-82
2023/05/29 07:49:40;;;;;;;1999.90;999.90;;;27.30;99.30;;;;;;5074418;28;20029;-82
2023/05/29 07:52:05;;;;;;;1999.90;999.90;;;28.10;99.60;;;;;;5074344;28;20025;-73
2023/05/29 07:54:34;;;;;;;1999.90;999.90;;;28.50;98.90;;;;;;5073322;28;20028;-83
2023/05/29 07:57:00;;;;;;;1999.90;999.90;;;28.60;97.80;;;;;;5073979;28;20033;-82
2023/05/29 07:59:26;;;;;;;1999.90;999.90;;;29.20;98.10;;;;;;5073740;28;20510;-71
2023/05/29 08:01:51;;;;;;;1999.90;999.90;;;29.60;97.10;;;;;;5073543;28;20541;-79
2023/05/29 08:04:17;;;;;;;1999.90;999.90;;;29.90;96.40;;;;;;5073527;28;20028;-80
2023/05/29 08:06:43;;;;;;;1999.90;999.90;;;30.50;95.90;;;;;;5074344;28;20028;-79
2023/05/29 08:09:10;;;;;;;1999.90;999.90;;;30.80;95.20;;;;;;5073495;28;20044;-71
2023/05/29 08:11:36;;;;;;;1999.90;999.90;;;31.10;94.20;;;;;;5074095;28;20039;-71
2023/05/29 08:14:02;;;;;;;1999.90;999.90;;;30.60;94.10;;;;;;5074085;28;20032;-80
2023/05/29 08:16:28;;;;;;;1999.90;999.90;;;30.80;94.20;;;;;;5069611;28;20025;-80
2023/05/29 08:18:55;;;;;;;1999.90;999.90;;;31.10;94.00;;;;;;5071186;28;20029;-80
2023/05/29 08:21:20;;;;;;;1999.90;999.90;;;31.40;93.80;;;;;;5073871;28;20017;-71
2023/05/29 08:23:46;;;;;;;1999.90;999.90;;;31.40;93.80;;;;;;5073647;28;20397;-71
2023/05/29 08:26:13;;;;;;;1999.90;999.90;;;31.50;93.30;;;;;;5073786;28;20487;-80
2023/05/29 08:28:38;;;;;;;1999.90;999.90;;;32.00;92.90;;;;;;5055927;28;20388;-81
2023/05/29 08:31:04;;;;;;;1999.90;999.90;;;31.80;93.10;;;;;;5073522;28;20031;-71
2023/05/29 08:33:30;;;;;;;1999.90;999.90;;;31.60;93.00;;;;;;5073659;28;20035;-81
2023/05/29 08:36:00;;;;;;;1999.90;999.90;;;32.10;92.50;;;;;;5073652;28;20448;-72
2023/05/29 08:38:26;;;;;;;1999.90;999.90;;;32.20;92.20;;;;;;5073557;28;20013;-81
2023/05/29 08:40:51;;;;;;;1999.90;999.90;;;31.50;92.00;;;;;;5073173;28;20518;-81
2023/05/29 08:43:25;;;;;;;1999.90;999.90;;;32.00;92.40;;;;;;5055286;28;20016;-81
2023/05/29 08:45:54;;;;;;;1999.90;999.90;;;32.30;92.10;;;;;;5073422;28;20518;-80
2023/05/29 08:48:24;;;;;;;1999.90;999.90;;;32.60;91.60;;;;;;5073229;28;20383;-72
2023/05/29 08:50:53;;;;;;;1999.90;999.90;;;32.60;91.70;;;;;;5073209;28;20028;-71
2023/05/29 08:53:19;;;;;;;1999.90;999.90;;;32.50;91.60;;;;;;5072860;28;20029;-81
2023/05/29 08:55:48;;;;;;;1999.90;999.90;;;32.80;91.30;;;;;;5072963;28;20044;-80
2023/05/29 08:58:17;;;;;;;1999.90;999.90;;;33.30;91.20;;;;;;5073427;28;20483;-80
2023/05/29 09:00:47;;;;;;;1999.90;999.90;;;33.10;90.80;;;;;;5073181;28;20028;-72
2023/05/29 09:03:13;;;;;;;1999.90;999.90;;;33.00;90.80;;;;;;5069157;28;20062;-72
2023/05/29 09:05:40;;;;;;;1999.90;999.90;;;33.30;90.70;;;;;;5072984;28;20109;-81
2023/05/29 09:08:11;;;;;;;1999.90;999.90;;;33.70;90.60;;;;;;5072873;28;20037;-81
2023/05/29 09:10:44;;;;;;;1999.90;999.90;;;33.60;90.50;;;;;;5073573;28;20383;-72
2023/05/29 09:13:11;;;;;;;1999.90;999.90;;;33.50;90.10;;;;;;5073006;28;20507;-81
2023/05/29 09:15:39;;;;;;;1999.90;999.90;;;33.60;90.80;;;;;;5072684;28;20185;-71
2023/05/29 09:18:06;;;;;;;1999.90;999.90;;;33.60;90.30;;;;;;5082685;28;20032;-81
2023/05/29 09:20:32;;;;;;;1999.90;999.90;;;33.60;90.60;;;;;;5092552;28;20078;-81
2023/05/29 09:23:06;;;;;;;1999.90;999.90;;;34.10;89.60;;;;;;5093143;28;20020;-81
2023/05/29 09:25:34;;;;;;;1999.90;999.90;;;34.10;89.60;;;;;;5093071;28;20229;-81
2023/05/29 09:28:02;;;;;;;1999.90;999.90;;;34.80;89.40;;;;;;5092813;28;20020;-72
2023/05/29 09:30:40;;;;;;;1999.90;999.90;;;35.10;87.60;;;;;;5092852;28;20020;-72
2023/05/29 09:33:08;;;;;;;1999.90;999.90;;;34.90;88.10;;;;;;5093481;28;20039;-81
2023/05/29 09:35:36;;;;;;;1999.90;999.90;;;35.10;86.90;;;;;;5092811;28;20016;-72
2023/05/29 09:38:03;;;;;;;1999.90;999.90;;;35.60;87.00;;;;;;5092604;28;20036;-81
2023/05/29 09:40:36;;;;;;;1999.90;999.90;;;35.10;86.20;;;;;;5092545;28;20028;-81
2023/05/29 09:43:14;;;;;;;1999.90;999.90;;;34.70;86.00;;;;;;5092858;28;20471;-72
2023/05/29 09:45:47;;;;;;;1999.90;999.90;;;35.60;86.00;;;;;;5093059;28;20020;-81
2023/05/29 09:48:15;;;;;;;1999.90;999.90;;;35.20;86.10;;;;;;5092575;28;20032;-72
2023/05/29 09:50:44;;;;;;;1999.90;999.90;;;34.90;86.20;;;;;;5092522;28;20414;-82
2023/05/29 09:53:28;;;;;;;1999.90;999.90;;;35.60;84.60;;;;;;5096831;28;20031;-73
2023/05/29 09:55:55;;;;;;;1999.90;999.90;;;35.50;84.20;;;;;;5096127;28;20106;-72
2023/05/29 09:58:22;;;;;;;1999.90;999.90;;;36.20;84.00;;;;;;5096996;28;20032;-82
2023/05/29 10:00:49;;;;;;;1999.90;999.90;;;36.10;83.20;;;;;;5096757;28;20499;-82
2023/05/29 10:03:16;;;;;;;1999.90;999.90;;;35.40;83.40;;;;;;5081525;28;20024;-72
2023/05/29 10:05:43;;;;;;;1999.90;999.90;;;35.40;83.50;;;;;;5076460;28;20019;-73
2023/05/29 10:08:15;;;;;;;1999.90;999.90;;;35.60;84.50;;;;;;5076110;28;20068;-72
2023/05/29 10:10:44;;;;;;;1999.90;999.90;;;35.70;83.30;;;;;;5076338;28;20021;-72
2023/05/29 10:13:14;;;;;;;1999.90;999.90;;;35.60;82.60;;;;;;5076508;28;20020;-82
2023/05/29 10:15:50;;;;;;;1999.90;999.90;;;35.50;81.80;;;;;;5076353;28;20044;-72
2023/05/29 10:18:37;;;;;;;1999.90;999.90;;;35.60;83.00;;;;;;5075986;28;20024;-72
2023/05/29 10:21:03;;;;;;;1999.90;999.90;;;35.10;82.90;;;;;;5076047;28;20446;-72
2023/05/29 10:23:30;;;;;;;1999.90;999.90;;;35.20;83.30;;;;;;5075926;28;20020;-72
2023/05/29 10:26:10;;;;;;;1999.90;999.90;;;34.60;83.20;;;;;;5075219;28;20025;-82
2023/05/29 10:28:39;;;;;;;1999.90;999.90;;;34.90;84.20;;;;;;5076221;28;20075;-82
2023/05/29 10:31:17;;;;;;;1999.90;999.90;;;34.30;83.40;;;;;;5076115;28;20545;-81
2023/05/29 10:33:56;;;;;;;1999.90;999.90;;;34.50;83.80;;;;;;5075959;28;20499;-72
2023/05/29 10:36:26;;;;;;;1999.90;999.90;;;34.70;84.00;;;;;;5075632;28;20028;-72
2023/05/29 10:38:53;;;;;;;1999.90;999.90;;;34.80;84.80;;;;;;5075671;28;20020;-82
2023/05/29 10:41:26;;;;;;;1999.90;999.90;;;34.40;84.40;;;;;;5075947;28;20017;-81
2023/05/29 10:43:57;;;;;;;1999.90;999.90;;;34.00;83.00;;;;;;5075460;28;20024;-81
2023/05/29 10:46:42;;;;;;;1999.90;999.90;;;33.70;82.90;;;;;;5075819;28;20025;-72
2023/05/29 10:49:21;;;;;;;1999.90;999.90;;;33.60;83.70;;;;;;5075588;28;20255;-81
2023/05/29 10:51:48;;;;;;;1999.90;999.90;;;34.10;83.80;;;;;;5075519;28;20039;-72
2023/05/29 10:54:14;;;;;;;1999.90;999.90;;;33.80;82.90;;;;;;5075807;28;20114;-81
2023/05/29 10:56:41;;;;;;;1999.90;999.90;;;34.00;82.20;;;;;;5074668;28;20148;-72
2023/05/29 10:59:08;;;;;;;1999.90;999.90;;;33.50;81.00;;;;;;5075372;28;20023;-72
2023/05/29 11:01:37;;;;;;;1999.90;999.90;;;33.60;82.80;;;;;;5075097;28;20024;-81
2023/05/29 11:04:15;;;;;;;1999.90;999.90;;;33.80;82.40;;;;;;5075018;28;20558;-81
2023/05/29 11:06:41;;;;;;;1999.90;999.90;;;34.00;82.80;;;;;;5075465;28;20028;-72
2023/05/29 11:09:28;;;;;;;1999.90;999.90;;;35.00;83.50;;;;;;5074758;28;20036;-81
2023/05/29 11:12:25;;;;;;;1999.90;999.90;;;35.10;80.30;;;;;;5057066;28;20025;-72
2023/05/29 11:15:02;;;;;;;1999.90;999.90;;;34.60;79.60;;;;;;5075080;28;20071;-81
2023/05/29 11:17:39;;;;;;;1999.90;999.90;;;34.80;80.70;;;;;;5067812;28;20017;-82
2023/05/29 11:20:13;;;;;;;1999.90;999.90;;;34.50;80.80;;;;;;5074446;28;20450;-81
2023/05/29 11:22:54;;;;;;;1999.90;999.90;;;34.20;80.30;;;;;;5075040;28;20067;-81
2023/05/29 11:25:21;;;;;;;1999.90;999.90;;;34.00;80.20;;;;;;5075103;28;20021;-81
2023/05/29 11:27:47;;;;;;;1999.90;999.90;;;34.40;81.60;;;;;;5074837;28;20095;-81
2023/05/29 11:30:13;;;;;;;1999.90;999.90;;;34.40;79.80;;;;;;5075299;28;20067;-81
2023/05/29 11:32:40;;;;;;;1999.90;999.90;;;34.60;81.30;;;;;;5074958;28;20108;-72
2023/05/29 11:35:09;;;;;;;1999.90;999.90;;;34.60;80.70;;;;;;5056578;28;20403;-81
2023/05/29 11:37:39;;;;;;;1999.90;999.90;;;34.50;80.50;;;;;;5074662;28;20047;-81
2023/05/29 11:40:08;;;;;;;1999.90;999.90;;;34.10;77.30;;;;;;5074386;28;20024;-81
2023/05/29 11:42:33;;;;;;;1999.90;999.90;;;34.30;77.20;;;;;;5074687;28;20082;-81
2023/05/29 11:45:11;;;;;;;1999.90;999.90;;;34.30;79.00;;;;;;5074538;28;20464;-81
2023/05/29 11:48:00;;;;;;;1999.90;999.90;;;34.50;79.50;;;;;;5074470;28;20017;-82
2023/05/29 11:50:27;;;;;;;1999.90;999.90;;;34.40;78.50;;;;;;5074367;28;20391;-81
2023/05/29 11:52:54;;;;;;;1999.90;999.90;;;34.90;80.90;;;;;;5074771;28;20059;-81
2023/05/29 11:55:20;;;;;;;1999.90;999.90;;;34.80;79.40;;;;;;5074269;28;20432;-81
2023/05/29 11:57:47;;;;;;;1999.90;999.90;;;34.90;80.10;;;;;;5073230;28;20115;-81
2023/05/29 12:00:18;;;;;;;1999.90;999.90;;;34.50;80.80;;;;;;5074049;28;20125;-80
2023/05/29 12:02:46;;;;;;;1999.90;999.90;;;34.60;78.90;;;;;;5071522;28;20024;-72